sensor_id;sensor_type;location;lat;lon;timestamp;P1;durP1;ratioP1;P2;durP2;ratioP2
39524;SDS011;25203;50.754;6.978;2022-08-18T00:01:50;15.77;;;13.75;;
39524;SDS011;25203;50.754;6.978;2022-08-18T00:03:58;14.90;;;13.40;;
39524;SDS011;25203;50.754;6.978;2022-08-18T00:05:59;17.40;;;14.38;;
39524;SDS011;25203;50.754;6.978;2022-08-18T00:07:59;14.35;;;12.65;;
39524;SDS011;25203;50.754;6.978;2022-08-18T00:10:00;13.45;;;12.05;;
39524;SDS011;25203;50.754;6.978;2022-08-18T00:12:03;13.75;;;12.32;;
39524;SDS011;25203;50.754;6.978;2022-08-18T00:14:07;15.27;;;13.20;;
39524;SDS011;25203;50.754;6.978;2022-08-18T00:16:10;14.45;;;13.07;;
39524;SDS011;25203;50.754;6.978;2022-08-18T00:18:11;15.77;;;14.27;;
39524;SDS011;25203;50.754;6.978;2022-08-18T00:20:13;17.08;;;15.38;;
39524;SDS011;25203;50.754;6.978;2022-08-18T00:22:19;19.88;;;17.23;;
39524;SDS011;25203;50.754;6.978;2022-08-18T00:24:20;19.80;;;17.77;;
39524;SDS011;25203;50.754;6.978;2022-08-18T00:26:21;21.08;;;16.90;;
39524;SDS011;25203;50.754;6.978;2022-08-18T00:28:21;17.60;;;15.80;;
39524;SDS011;25203;50.754;6.978;2022-08-18T00:30:22;18.42;;;16.55;;
39524;SDS011;25203;50.754;6.978;2022-08-18T00:32:25;18.60;;;16.67;;
39524;SDS011;25203;50.754;6.978;2022-08-18T00:34:28;19.25;;;16.95;;
39524;SDS011;25203;50.754;6.978;2022-08-18T00:36:28;17.85;;;16.05;;
39524;SDS011;25203;50.754;6.978;2022-08-18T00:38:31;18.05;;;16.13;;
39524;SDS011;25203;50.754;6.978;2022-08-18T00:40:33;20.75;;;18.60;;
39524;SDS011;25203;50.754;6.978;2022-08-18T00:42:42;23.65;;;21.15;;
39524;SDS011;25203;50.754;6.978;2022-08-18T00:44:45;21.35;;;19.15;;
39524;SDS011;25203;50.754;6.978;2022-08-18T00:46:46;21.30;;;19.10;;
39524;SDS011;25203;50.754;6.978;2022-08-18T00:48:47;20.98;;;18.67;;
39524;SDS011;25203;50.754;6.978;2022-08-18T00:50:51;21.35;;;18.35;;
39524;SDS011;25203;50.754;6.978;2022-08-18T00:52:55;18.92;;;17.02;;
39524;SDS011;25203;50.754;6.978;2022-08-18T00:55:06;21.25;;;17.80;;
39524;SDS011;25203;50.754;6.978;2022-08-18T00:57:07;19.98;;;17.67;;
39524;SDS011;25203;50.754;6.978;2022-08-18T01:01:15;20.55;;;18.45;;
39524;SDS011;25203;50.754;6.978;2022-08-18T01:03:20;25.50;;;20.50;;
39524;SDS011;25203;50.754;6.978;2022-08-18T01:05:35;22.70;;;20.27;;
39524;SDS011;25203;50.754;6.978;2022-08-18T01:07:41;23.70;;;20.08;;
39524;SDS011;25203;50.754;6.978;2022-08-18T01:09:47;24.87;;;20.57;;
39524;SDS011;25203;50.754;6.978;2022-08-18T01:11:50;22.17;;;19.88;;
39524;SDS011;25203;50.754;6.978;2022-08-18T01:13:51;21.33;;;19.13;;
39524;SDS011;25203;50.754;6.978;2022-08-18T01:15:52;22.83;;;20.48;;
39524;SDS011;25203;50.754;6.978;2022-08-18T01:17:54;26.30;;;22.27;;
39524;SDS011;25203;50.754;6.978;2022-08-18T01:20:14;27.73;;;23.63;;
39524;SDS011;25203;50.754;6.978;2022-08-18T01:24:48;24.90;;;21.38;;
39524;SDS011;25203;50.754;6.978;2022-08-18T01:27:09;29.25;;;23.73;;
39524;SDS011;25203;50.754;6.978;2022-08-18T01:29:14;28.88;;;23.67;;
39524;SDS011;25203;50.754;6.978;2022-08-18T01:31:36;29.67;;;24.27;;
39524;SDS011;25203;50.754;6.978;2022-08-18T01:33:40;30.42;;;25.35;;
39524;SDS011;25203;50.754;6.978;2022-08-18T01:35:44;33.67;;;27.90;;
39524;SDS011;25203;50.754;6.978;2022-08-18T01:37:48;29.08;;;25.90;;
39524;SDS011;25203;50.754;6.978;2022-08-18T01:39:48;25.85;;;23.15;;
39524;SDS011;25203;50.754;6.978;2022-08-18T01:41:49;26.27;;;23.45;;
39524;SDS011;25203;50.754;6.978;2022-08-18T01:43:50;25.05;;;22.25;;
39524;SDS011;25203;50.754;6.978;2022-08-18T01:45:51;24.98;;;22.00;;
39524;SDS011;25203;50.754;6.978;2022-08-18T01:47:52;24.38;;;21.90;;
39524;SDS011;25203;50.754;6.978;2022-08-18T01:49:52;27.00;;;21.73;;
39524;SDS011;25203;50.754;6.978;2022-08-18T01:51:53;23.30;;;20.80;;
39524;SDS011;25203;50.754;6.978;2022-08-18T01:53:55;25.00;;;21.55;;
39524;SDS011;25203;50.754;6.978;2022-08-18T01:55:55;23.75;;;21.15;;
39524;SDS011;25203;50.754;6.978;2022-08-18T01:57:57;23.23;;;20.17;;
39524;SDS011;25203;50.754;6.978;2022-08-18T01:59:57;30.92;;;26.95;;
39524;SDS011;25203;50.754;6.978;2022-08-18T02:02:00;28.88;;;24.75;;
39524;SDS011;25203;50.754;6.978;2022-08-18T02:04:00;29.30;;;25.38;;
39524;SDS011;25203;50.754;6.978;2022-08-18T02:06:02;28.80;;;25.55;;
39524;SDS011;25203;50.754;6.978;2022-08-18T02:08:04;29.17;;;24.83;;
39524;SDS011;25203;50.754;6.978;2022-08-18T02:10:08;28.80;;;24.35;;
39524;SDS011;25203;50.754;6.978;2022-08-18T02:12:09;28.95;;;25.13;;
39524;SDS011;25203;50.754;6.978;2022-08-18T02:14:10;25.98;;;22.17;;
39524;SDS011;25203;50.754;6.978;2022-08-18T02:16:11;29.25;;;25.08;;
39524;SDS011;25203;50.754;6.978;2022-08-18T02:18:15;29.58;;;24.65;;
39524;SDS011;25203;50.754;6.978;2022-08-18T02:20:18;27.85;;;24.10;;
39524;SDS011;25203;50.754;6.978;2022-08-18T02:22:19;27.25;;;23.02;;
39524;SDS011;25203;50.754;6.978;2022-08-18T02:24:20;31.80;;;25.65;;
39524;SDS011;25203;50.754;6.978;2022-08-18T02:26:20;26.83;;;23.92;;
39524;SDS011;25203;50.754;6.978;2022-08-18T02:28:22;25.92;;;23.15;;
39524;SDS011;25203;50.754;6.978;2022-08-18T02:30:23;30.10;;;24.75;;
39524;SDS011;25203;50.754;6.978;2022-08-18T02:32:23;30.02;;;26.75;;
39524;SDS011;25203;50.754;6.978;2022-08-18T02:34:24;27.48;;;24.58;;
39524;SDS011;25203;50.754;6.978;2022-08-18T02:36:26;31.55;;;25.00;;
39524;SDS011;25203;50.754;6.978;2022-08-18T02:38:27;33.42;;;26.60;;
39524;SDS011;25203;50.754;6.978;2022-08-18T02:40:28;31.75;;;27.13;;
39524;SDS011;25203;50.754;6.978;2022-08-18T02:42:31;27.60;;;24.60;;
39524;SDS011;25203;50.754;6.978;2022-08-18T02:44:33;36.33;;;29.48;;
39524;SDS011;25203;50.754;6.978;2022-08-18T02:46:34;38.95;;;31.45;;
39524;SDS011;25203;50.754;6.978;2022-08-18T02:48:35;37.72;;;29.90;;
39524;SDS011;25203;50.754;6.978;2022-08-18T02:50:36;36.55;;;29.20;;
39524;SDS011;25203;50.754;6.978;2022-08-18T02:52:45;35.53;;;29.60;;
39524;SDS011;25203;50.754;6.978;2022-08-18T02:54:45;33.80;;;28.40;;
39524;SDS011;25203;50.754;6.978;2022-08-18T02:56:47;43.05;;;34.00;;
39524;SDS011;25203;50.754;6.978;2022-08-18T02:58:51;54.42;;;41.08;;
39524;SDS011;25203;50.754;6.978;2022-08-18T03:00:53;55.58;;;41.78;;
39524;SDS011;25203;50.754;6.978;2022-08-18T03:02:54;63.90;;;45.70;;
39524;SDS011;25203;50.754;6.978;2022-08-18T03:04:54;59.83;;;43.92;;
39524;SDS011;25203;50.754;6.978;2022-08-18T03:06:55;52.58;;;39.17;;
39524;SDS011;25203;50.754;6.978;2022-08-18T03:08:58;52.85;;;39.42;;
39524;SDS011;25203;50.754;6.978;2022-08-18T03:10:59;48.08;;;37.50;;
39524;SDS011;25203;50.754;6.978;2022-08-18T03:12:59;42.13;;;33.55;;
39524;SDS011;25203;50.754;6.978;2022-08-18T03:15:00;58.70;;;42.63;;
39524;SDS011;25203;50.754;6.978;2022-08-18T03:17:03;50.95;;;37.33;;
39524;SDS011;25203;50.754;6.978;2022-08-18T03:19:05;50.15;;;36.53;;
39524;SDS011;25203;50.754;6.978;2022-08-18T03:21:10;49.85;;;37.10;;
39524;SDS011;25203;50.754;6.978;2022-08-18T03:23:12;52.22;;;38.00;;
39524;SDS011;25203;50.754;6.978;2022-08-18T03:25:13;56.03;;;41.80;;
39524;SDS011;25203;50.754;6.978;2022-08-18T03:27:14;61.85;;;41.95;;
39524;SDS011;25203;50.754;6.978;2022-08-18T03:29:14;52.28;;;38.42;;
39524;SDS011;25203;50.754;6.978;2022-08-18T03:31:15;57.65;;;42.47;;
39524;SDS011;25203;50.754;6.978;2022-08-18T03:33:17;58.80;;;41.55;;
39524;SDS011;25203;50.754;6.978;2022-08-18T03:35:17;46.67;;;35.83;;
39524;SDS011;25203;50.754;6.978;2022-08-18T03:37:18;43.60;;;34.45;;
39524;SDS011;25203;50.754;6.978;2022-08-18T03:39:19;40.08;;;31.23;;
39524;SDS011;25203;50.754;6.978;2022-08-18T03:41:23;37.65;;;30.92;;
39524;SDS011;25203;50.754;6.978;2022-08-18T03:43:26;35.78;;;28.70;;
39524;SDS011;25203;50.754;6.978;2022-08-18T03:45:27;34.33;;;26.55;;
39524;SDS011;25203;50.754;6.978;2022-08-18T03:47:30;33.25;;;27.75;;
39524;SDS011;25203;50.754;6.978;2022-08-18T03:49:31;35.83;;;28.02;;
39524;SDS011;25203;50.754;6.978;2022-08-18T03:51:32;38.47;;;32.20;;
39524;SDS011;25203;50.754;6.978;2022-08-18T03:53:34;45.35;;;34.22;;
39524;SDS011;25203;50.754;6.978;2022-08-18T03:55:39;43.47;;;34.70;;
39524;SDS011;25203;50.754;6.978;2022-08-18T03:57:41;36.00;;;29.52;;
39524;SDS011;25203;50.754;6.978;2022-08-18T03:59:43;34.15;;;29.15;;
39524;SDS011;25203;50.754;6.978;2022-08-18T04:01:44;32.95;;;27.67;;
39524;SDS011;25203;50.754;6.978;2022-08-18T04:03:49;31.50;;;23.70;;
39524;SDS011;25203;50.754;6.978;2022-08-18T04:05:52;25.10;;;22.35;;
39524;SDS011;25203;50.754;6.978;2022-08-18T04:07:53;27.33;;;22.88;;
39524;SDS011;25203;50.754;6.978;2022-08-18T04:09:54;41.03;;;33.97;;
39524;SDS011;25203;50.754;6.978;2022-08-18T04:11:55;33.50;;;27.52;;
39524;SDS011;25203;50.754;6.978;2022-08-18T04:14:02;33.08;;;27.30;;
39524;SDS011;25203;50.754;6.978;2022-08-18T04:16:04;36.22;;;24.85;;
39524;SDS011;25203;50.754;6.978;2022-08-18T04:18:04;31.98;;;26.42;;
39524;SDS011;25203;50.754;6.978;2022-08-18T04:20:07;25.50;;;22.40;;
39524;SDS011;25203;50.754;6.978;2022-08-18T04:22:09;27.35;;;23.42;;
39524;SDS011;25203;50.754;6.978;2022-08-18T04:24:11;30.73;;;25.08;;
39524;SDS011;25203;50.754;6.978;2022-08-18T04:26:12;30.55;;;25.25;;
39524;SDS011;25203;50.754;6.978;2022-08-18T04:28:13;32.85;;;26.35;;
39524;SDS011;25203;50.754;6.978;2022-08-18T04:30:14;27.45;;;22.23;;
39524;SDS011;25203;50.754;6.978;2022-08-18T04:32:14;31.25;;;26.63;;
39524;SDS011;25203;50.754;6.978;2022-08-18T04:34:16;32.83;;;26.55;;
39524;SDS011;25203;50.754;6.978;2022-08-18T04:36:19;39.58;;;28.05;;
39524;SDS011;25203;50.754;6.978;2022-08-18T04:38:20;32.80;;;27.70;;
39524;SDS011;25203;50.754;6.978;2022-08-18T04:40:21;38.15;;;28.92;;
39524;SDS011;25203;50.754;6.978;2022-08-18T04:42:21;33.47;;;28.20;;
39524;SDS011;25203;50.754;6.978;2022-08-18T04:44:22;40.63;;;29.42;;
39524;SDS011;25203;50.754;6.978;2022-08-18T04:46:23;34.97;;;27.73;;
39524;SDS011;25203;50.754;6.978;2022-08-18T04:48:24;37.78;;;29.98;;
39524;SDS011;25203;50.754;6.978;2022-08-18T04:50:25;38.83;;;28.65;;
39524;SDS011;25203;50.754;6.978;2022-08-18T04:52:25;38.25;;;29.92;;
39524;SDS011;25203;50.754;6.978;2022-08-18T04:54:44;37.42;;;29.33;;
39524;SDS011;25203;50.754;6.978;2022-08-18T04:56:45;34.55;;;29.30;;
39524;SDS011;25203;50.754;6.978;2022-08-18T04:58:46;33.70;;;28.70;;
39524;SDS011;25203;50.754;6.978;2022-08-18T05:00:58;36.47;;;28.70;;
39524;SDS011;25203;50.754;6.978;2022-08-18T05:03:00;33.38;;;28.23;;
39524;SDS011;25203;50.754;6.978;2022-08-18T05:05:01;31.98;;;27.42;;
39524;SDS011;25203;50.754;6.978;2022-08-18T05:07:07;27.35;;;24.23;;
39524;SDS011;25203;50.754;6.978;2022-08-18T05:09:09;29.13;;;23.92;;
39524;SDS011;25203;50.754;6.978;2022-08-18T05:11:11;28.90;;;25.33;;
39524;SDS011;25203;50.754;6.978;2022-08-18T05:13:12;27.75;;;24.10;;
39524;SDS011;25203;50.754;6.978;2022-08-18T05:15:16;32.17;;;27.45;;
39524;SDS011;25203;50.754;6.978;2022-08-18T05:17:18;31.30;;;25.00;;
39524;SDS011;25203;50.754;6.978;2022-08-18T05:19:19;38.67;;;31.27;;
39524;SDS011;25203;50.754;6.978;2022-08-18T05:21:21;36.60;;;28.20;;
39524;SDS011;25203;50.754;6.978;2022-08-18T05:23:23;32.50;;;27.45;;
39524;SDS011;25203;50.754;6.978;2022-08-18T05:25:23;36.38;;;28.70;;
39524;SDS011;25203;50.754;6.978;2022-08-18T05:27:24;37.83;;;31.52;;
39524;SDS011;25203;50.754;6.978;2022-08-18T05:29:31;38.63;;;29.07;;
39524;SDS011;25203;50.754;6.978;2022-08-18T05:31:35;43.97;;;34.10;;
39524;SDS011;25203;50.754;6.978;2022-08-18T05:33:36;41.63;;;32.22;;
39524;SDS011;25203;50.754;6.978;2022-08-18T05:35:48;49.78;;;36.25;;
39524;SDS011;25203;50.754;6.978;2022-08-18T05:40:03;48.20;;;34.75;;
39524;SDS011;25203;50.754;6.978;2022-08-18T05:42:09;49.55;;;35.95;;
39524;SDS011;25203;50.754;6.978;2022-08-18T05:44:13;42.72;;;32.47;;
39524;SDS011;25203;50.754;6.978;2022-08-18T05:46:16;42.65;;;33.05;;
39524;SDS011;25203;50.754;6.978;2022-08-18T05:48:17;41.28;;;31.30;;
39524;SDS011;25203;50.754;6.978;2022-08-18T05:50:19;39.22;;;31.25;;
39524;SDS011;25203;50.754;6.978;2022-08-18T05:54:39;36.45;;;28.80;;
39524;SDS011;25203;50.754;6.978;2022-08-18T05:57:05;47.40;;;35.58;;
39524;SDS011;25203;50.754;6.978;2022-08-18T05:59:16;43.70;;;31.73;;
39524;SDS011;25203;50.754;6.978;2022-08-18T06:01:29;40.42;;;30.95;;
39524;SDS011;25203;50.754;6.978;2022-08-18T06:04:18;53.08;;;37.25;;
39524;SDS011;25203;50.754;6.978;2022-08-18T06:06:07;58.20;;;37.97;;
39524;SDS011;25203;50.754;6.978;2022-08-18T06:08:12;54.80;;;35.97;;
39524;SDS011;25203;50.754;6.978;2022-08-18T06:10:15;77.15;;;43.67;;
39524;SDS011;25203;50.754;6.978;2022-08-18T06:14:37;77.40;;;44.90;;
39524;SDS011;25203;50.754;6.978;2022-08-18T06:16:41;77.47;;;45.50;;
39524;SDS011;25203;50.754;6.978;2022-08-18T06:18:46;84.22;;;48.03;;
39524;SDS011;25203;50.754;6.978;2022-08-18T06:28:03;78.30;;;46.22;;
39524;SDS011;25203;50.754;6.978;2022-08-18T06:30:28;73.65;;;41.50;;
39524;SDS011;25203;50.754;6.978;2022-08-18T06:37:33;77.05;;;48.65;;
39524;SDS011;25203;50.754;6.978;2022-08-18T06:40:00;79.20;;;47.40;;
39524;SDS011;25203;50.754;6.978;2022-08-18T06:42:01;75.60;;;46.22;;
39524;SDS011;25203;50.754;6.978;2022-08-18T06:46:43;79.68;;;46.90;;
39524;SDS011;25203;50.754;6.978;2022-08-18T06:48:50;80.40;;;47.42;;
39524;SDS011;25203;50.754;6.978;2022-08-18T06:51:00;80.20;;;48.47;;
39524;SDS011;25203;50.754;6.978;2022-08-18T06:53:04;69.93;;;45.28;;
39524;SDS011;25203;50.754;6.978;2022-08-18T06:55:11;82.55;;;49.08;;
39524;SDS011;25203;50.754;6.978;2022-08-18T06:59:59;68.70;;;41.17;;
39524;SDS011;25203;50.754;6.978;2022-08-18T07:04:35;82.60;;;48.42;;
39524;SDS011;25203;50.754;6.978;2022-08-18T07:06:36;80.13;;;46.92;;
39524;SDS011;25203;50.754;6.978;2022-08-18T07:08:38;78.32;;;47.05;;
39524;SDS011;25203;50.754;6.978;2022-08-18T07:10:43;83.03;;;48.20;;
39524;SDS011;25203;50.754;6.978;2022-08-18T07:12:48;82.70;;;49.08;;
39524;SDS011;25203;50.754;6.978;2022-08-18T07:14:50;78.00;;;45.47;;
39524;SDS011;25203;50.754;6.978;2022-08-18T07:19:33;90.03;;;50.60;;
39524;SDS011;25203;50.754;6.978;2022-08-18T07:21:35;91.97;;;50.97;;
39524;SDS011;25203;50.754;6.978;2022-08-18T07:23:38;90.53;;;51.85;;
39524;SDS011;25203;50.754;6.978;2022-08-18T07:25:40;93.82;;;53.10;;
39524;SDS011;25203;50.754;6.978;2022-08-18T07:27:46;88.63;;;50.08;;
39524;SDS011;25203;50.754;6.978;2022-08-18T07:30:07;99.93;;;53.78;;
39524;SDS011;25203;50.754;6.978;2022-08-18T07:32:12;86.00;;;51.28;;
39524;SDS011;25203;50.754;6.978;2022-08-18T07:34:21;93.18;;;52.53;;
39524;SDS011;25203;50.754;6.978;2022-08-18T07:36:27;99.18;;;54.08;;
39524;SDS011;25203;50.754;6.978;2022-08-18T07:38:34;94.40;;;50.95;;
39524;SDS011;25203;50.754;6.978;2022-08-18T07:40:54;99.15;;;53.83;;
39524;SDS011;25203;50.754;6.978;2022-08-18T07:45:22;91.18;;;50.35;;
39524;SDS011;25203;50.754;6.978;2022-08-18T07:47:48;90.95;;;51.17;;
39524;SDS011;25203;50.754;6.978;2022-08-18T07:49:51;85.05;;;48.60;;
39524;SDS011;25203;50.754;6.978;2022-08-18T07:56:42;78.63;;;43.88;;
39524;SDS011;25203;50.754;6.978;2022-08-18T07:59:02;68.80;;;42.63;;
39524;SDS011;25203;50.754;6.978;2022-08-18T08:01:32;64.18;;;40.17;;
39524;SDS011;25203;50.754;6.978;2022-08-18T08:03:50;63.72;;;41.13;;
39524;SDS011;25203;50.754;6.978;2022-08-18T08:06:12;56.58;;;35.78;;
39524;SDS011;25203;50.754;6.978;2022-08-18T08:08:39;59.83;;;38.63;;
39524;SDS011;25203;50.754;6.978;2022-08-18T08:15:27;57.60;;;38.63;;
39524;SDS011;25203;50.754;6.978;2022-08-18T08:27:03;51.40;;;34.70;;
39524;SDS011;25203;50.754;6.978;2022-08-18T08:29:44;54.85;;;35.25;;
39524;SDS011;25203;50.754;6.978;2022-08-18T08:31:49;49.83;;;34.40;;
39524;SDS011;25203;50.754;6.978;2022-08-18T08:36:17;52.97;;;35.65;;
39524;SDS011;25203;50.754;6.978;2022-08-18T08:38:26;45.47;;;31.60;;
39524;SDS011;25203;50.754;6.978;2022-08-18T08:40:43;53.88;;;34.45;;
39524;SDS011;25203;50.754;6.978;2022-08-18T08:45:05;52.42;;;34.75;;
39524;SDS011;25203;50.754;6.978;2022-08-18T08:47:16;42.90;;;30.48;;
39524;SDS011;25203;50.754;6.978;2022-08-18T08:49:36;45.20;;;34.40;;
39524;SDS011;25203;50.754;6.978;2022-08-18T08:51:38;46.75;;;34.70;;
39524;SDS011;25203;50.754;6.978;2022-08-18T08:53:49;39.90;;;32.15;;
39524;SDS011;25203;50.754;6.978;2022-08-18T08:56:01;42.78;;;29.40;;
39524;SDS011;25203;50.754;6.978;2022-08-18T09:00:08;48.28;;;34.33;;
39524;SDS011;25203;50.754;6.978;2022-08-18T09:11:51;30.92;;;23.20;;
39524;SDS011;25203;50.754;6.978;2022-08-18T09:14:10;31.83;;;25.63;;
39524;SDS011;25203;50.754;6.978;2022-08-18T09:21:19;33.20;;;26.20;;
39524;SDS011;25203;50.754;6.978;2022-08-18T09:23:40;33.17;;;26.48;;
39524;SDS011;25203;50.754;6.978;2022-08-18T09:25:45;37.92;;;29.67;;
39524;SDS011;25203;50.754;6.978;2022-08-18T09:27:51;41.03;;;29.35;;
39524;SDS011;25203;50.754;6.978;2022-08-18T09:32:48;35.20;;;27.55;;
39524;SDS011;25203;50.754;6.978;2022-08-18T09:35:10;36.33;;;28.80;;
39524;SDS011;25203;50.754;6.978;2022-08-18T09:37:15;37.13;;;28.85;;
39524;SDS011;25203;50.754;6.978;2022-08-18T09:42:21;39.65;;;29.63;;
39524;SDS011;25203;50.754;6.978;2022-08-18T09:48:50;38.58;;;30.17;;
39524;SDS011;25203;50.754;6.978;2022-08-18T09:51:34;32.80;;;26.13;;
39524;SDS011;25203;50.754;6.978;2022-08-18T09:55:51;34.10;;;25.85;;
39524;SDS011;25203;50.754;6.978;2022-08-18T09:58:14;40.33;;;31.48;;
39524;SDS011;25203;50.754;6.978;2022-08-18T10:00:37;37.17;;;31.80;;
39524;SDS011;25203;50.754;6.978;2022-08-18T10:04:40;33.15;;;26.63;;
39524;SDS011;25203;50.754;6.978;2022-08-18T10:06:49;34.45;;;28.17;;
39524;SDS011;25203;50.754;6.978;2022-08-18T10:09:01;31.92;;;26.95;;
39524;SDS011;25203;50.754;6.978;2022-08-18T10:11:13;28.88;;;24.73;;
39524;SDS011;25203;50.754;6.978;2022-08-18T10:16:22;26.80;;;23.55;;
39524;SDS011;25203;50.754;6.978;2022-08-18T10:18:40;31.50;;;24.80;;
39524;SDS011;25203;50.754;6.978;2022-08-18T10:23:45;30.15;;;24.75;;
39524;SDS011;25203;50.754;6.978;2022-08-18T10:25:49;31.55;;;25.88;;
39524;SDS011;25203;50.754;6.978;2022-08-18T10:27:54;27.90;;;23.58;;
39524;SDS011;25203;50.754;6.978;2022-08-18T10:29:56;31.75;;;24.92;;
39524;SDS011;25203;50.754;6.978;2022-08-18T10:34:04;28.80;;;22.65;;
39524;SDS011;25203;50.754;6.978;2022-08-18T10:36:10;29.98;;;24.10;;
39524;SDS011;25203;50.754;6.978;2022-08-18T10:38:40;25.65;;;21.50;;
39524;SDS011;25203;50.754;6.978;2022-08-18T10:40:50;30.85;;;23.92;;
39524;SDS011;25203;50.754;6.978;2022-08-18T10:43:29;28.80;;;23.25;;
39524;SDS011;25203;50.754;6.978;2022-08-18T10:47:37;33.13;;;26.92;;
39524;SDS011;25203;50.754;6.978;2022-08-18T10:49:38;29.02;;;24.00;;
39524;SDS011;25203;50.754;6.978;2022-08-18T10:56:07;38.70;;;31.67;;
39524;SDS011;25203;50.754;6.978;2022-08-18T11:00:20;35.20;;;29.83;;
39524;SDS011;25203;50.754;6.978;2022-08-18T11:04:43;36.55;;;30.75;;
39524;SDS011;25203;50.754;6.978;2022-08-18T11:06:47;37.42;;;31.25;;
39524;SDS011;25203;50.754;6.978;2022-08-18T11:08:53;34.00;;;30.27;;
39524;SDS011;25203;50.754;6.978;2022-08-18T11:11:04;35.55;;;31.63;;
39524;SDS011;25203;50.754;6.978;2022-08-18T11:13:50;32.85;;;29.30;;
39524;SDS011;25203;50.754;6.978;2022-08-18T11:16:09;31.38;;;28.08;;
39524;SDS011;25203;50.754;6.978;2022-08-18T11:18:29;24.83;;;22.25;;
39524;SDS011;25203;50.754;6.978;2022-08-18T11:20:35;28.73;;;25.70;;
39524;SDS011;25203;50.754;6.978;2022-08-18T11:22:43;30.95;;;27.83;;
39524;SDS011;25203;50.754;6.978;2022-08-18T11:24:50;26.52;;;23.63;;
39524;SDS011;25203;50.754;6.978;2022-08-18T11:26:59;24.50;;;22.10;;
39524;SDS011;25203;50.754;6.978;2022-08-18T11:31:39;27.42;;;24.73;;
39524;SDS011;25203;50.754;6.978;2022-08-18T11:33:40;27.90;;;25.00;;
39524;SDS011;25203;50.754;6.978;2022-08-18T11:35:46;24.10;;;21.55;;
39524;SDS011;25203;50.754;6.978;2022-08-18T11:39:58;30.00;;;26.88;;
39524;SDS011;25203;50.754;6.978;2022-08-18T11:42:00;29.92;;;25.33;;
39524;SDS011;25203;50.754;6.978;2022-08-18T11:44:01;29.75;;;23.92;;
39524;SDS011;25203;50.754;6.978;2022-08-18T11:46:12;24.58;;;22.08;;
39524;SDS011;25203;50.754;6.978;2022-08-18T11:48:42;27.58;;;24.35;;
39524;SDS011;25203;50.754;6.978;2022-08-18T11:55:38;25.08;;;22.10;;
39524;SDS011;25203;50.754;6.978;2022-08-18T11:57:40;30.10;;;26.17;;
39524;SDS011;25203;50.754;6.978;2022-08-18T11:59:54;28.60;;;25.50;;
39524;SDS011;25203;50.754;6.978;2022-08-18T12:01:55;22.60;;;20.33;;
39524;SDS011;25203;50.754;6.978;2022-08-18T12:06:11;26.92;;;24.05;;
39524;SDS011;25203;50.754;6.978;2022-08-18T12:08:15;25.33;;;22.65;;
39524;SDS011;25203;50.754;6.978;2022-08-18T12:10:25;27.85;;;24.85;;
39524;SDS011;25203;50.754;6.978;2022-08-18T12:12:28;20.80;;;18.77;;
39524;SDS011;25203;50.754;6.978;2022-08-18T12:14:32;22.55;;;19.70;;
39524;SDS011;25203;50.754;6.978;2022-08-18T12:16:51;23.58;;;21.10;;
39524;SDS011;25203;50.754;6.978;2022-08-18T12:18:52;21.73;;;19.42;;
39524;SDS011;25203;50.754;6.978;2022-08-18T12:20:53;24.83;;;22.20;;
39524;SDS011;25203;50.754;6.978;2022-08-18T12:22:55;21.42;;;19.13;;
39524;SDS011;25203;50.754;6.978;2022-08-18T12:24:56;19.40;;;17.38;;
39524;SDS011;25203;50.754;6.978;2022-08-18T12:26:57;23.83;;;21.33;;
39524;SDS011;25203;50.754;6.978;2022-08-18T12:28:59;27.45;;;23.38;;
39524;SDS011;25203;50.754;6.978;2022-08-18T12:30:59;26.40;;;22.00;;
39524;SDS011;25203;50.754;6.978;2022-08-18T12:33:00;21.27;;;19.08;;
39524;SDS011;25203;50.754;6.978;2022-08-18T12:35:01;24.90;;;22.10;;
39524;SDS011;25203;50.754;6.978;2022-08-18T12:37:03;30.88;;;24.25;;
39524;SDS011;25203;50.754;6.978;2022-08-18T12:39:07;28.88;;;25.75;;
39524;SDS011;25203;50.754;6.978;2022-08-18T12:41:07;24.25;;;21.63;;
39524;SDS011;25203;50.754;6.978;2022-08-18T12:43:10;26.50;;;23.70;;
39524;SDS011;25203;50.754;6.978;2022-08-18T12:45:11;28.63;;;20.83;;
39524;SDS011;25203;50.754;6.978;2022-08-18T12:47:16;21.17;;;18.85;;
39524;SDS011;25203;50.754;6.978;2022-08-18T12:49:23;16.40;;;14.70;;
39524;SDS011;25203;50.754;6.978;2022-08-18T12:51:24;30.85;;;23.67;;
39524;SDS011;25203;50.754;6.978;2022-08-18T12:53:25;21.85;;;19.60;;
39524;SDS011;25203;50.754;6.978;2022-08-18T12:55:26;28.70;;;25.63;;
39524;SDS011;25203;50.754;6.978;2022-08-18T12:57:28;28.95;;;25.55;;
39524;SDS011;25203;50.754;6.978;2022-08-18T12:59:30;24.15;;;21.52;;
39524;SDS011;25203;50.754;6.978;2022-08-18T13:01:31;24.58;;;22.08;;
39524;SDS011;25203;50.754;6.978;2022-08-18T13:03:32;24.75;;;22.15;;
39524;SDS011;25203;50.754;6.978;2022-08-18T13:05:33;24.13;;;21.55;;
39524;SDS011;25203;50.754;6.978;2022-08-18T13:07:34;22.67;;;20.27;;
39524;SDS011;25203;50.754;6.978;2022-08-18T13:09:35;21.88;;;19.67;;
39524;SDS011;25203;50.754;6.978;2022-08-18T13:11:37;24.40;;;21.80;;
39524;SDS011;25203;50.754;6.978;2022-08-18T13:13:37;25.75;;;23.02;;
39524;SDS011;25203;50.754;6.978;2022-08-18T13:15:39;23.63;;;21.15;;
39524;SDS011;25203;50.754;6.978;2022-08-18T13:17:40;25.33;;;22.73;;
39524;SDS011;25203;50.754;6.978;2022-08-18T13:19:42;23.38;;;20.98;;
39524;SDS011;25203;50.754;6.978;2022-08-18T13:21:43;25.00;;;20.70;;
39524;SDS011;25203;50.754;6.978;2022-08-18T13:23:44;25.58;;;22.85;;
39524;SDS011;25203;50.754;6.978;2022-08-18T13:25:44;24.33;;;21.83;;
39524;SDS011;25203;50.754;6.978;2022-08-18T13:27:45;21.25;;;18.95;;
39524;SDS011;25203;50.754;6.978;2022-08-18T13:29:46;22.30;;;20.00;;
39524;SDS011;25203;50.754;6.978;2022-08-18T13:31:47;25.90;;;22.52;;
39524;SDS011;25203;50.754;6.978;2022-08-18T13:33:48;29.42;;;24.90;;
39524;SDS011;25203;50.754;6.978;2022-08-18T13:35:50;25.05;;;22.48;;
39524;SDS011;25203;50.754;6.978;2022-08-18T13:37:51;23.88;;;21.48;;
39524;SDS011;25203;50.754;6.978;2022-08-18T13:39:54;25.38;;;22.67;;
39524;SDS011;25203;50.754;6.978;2022-08-18T13:41:54;25.65;;;22.95;;
39524;SDS011;25203;50.754;6.978;2022-08-18T13:43:55;36.80;;;25.50;;
39524;SDS011;25203;50.754;6.978;2022-08-18T13:45:56;29.70;;;25.80;;
39524;SDS011;25203;50.754;6.978;2022-08-18T13:47:56;26.33;;;23.52;;
39524;SDS011;25203;50.754;6.978;2022-08-18T13:49:58;24.75;;;20.30;;
39524;SDS011;25203;50.754;6.978;2022-08-18T13:51:59;25.50;;;22.75;;
39524;SDS011;25203;50.754;6.978;2022-08-18T13:53:59;26.88;;;24.02;;
39524;SDS011;25203;50.754;6.978;2022-08-18T13:56:00;33.80;;;26.77;;
39524;SDS011;25203;50.754;6.978;2022-08-18T13:58:01;25.10;;;21.00;;
39524;SDS011;25203;50.754;6.978;2022-08-18T14:00:03;27.00;;;24.08;;
39524;SDS011;25203;50.754;6.978;2022-08-18T14:02:08;25.50;;;22.98;;
39524;SDS011;25203;50.754;6.978;2022-08-18T14:04:09;25.00;;;22.30;;
39524;SDS011;25203;50.754;6.978;2022-08-18T14:06:11;23.42;;;20.98;;
39524;SDS011;25203;50.754;6.978;2022-08-18T14:08:12;22.65;;;20.33;;
39524;SDS011;25203;50.754;6.978;2022-08-18T14:10:13;25.05;;;22.38;;
39524;SDS011;25203;50.754;6.978;2022-08-18T14:12:17;22.33;;;20.13;;
39524;SDS011;25203;50.754;6.978;2022-08-18T14:14:20;24.40;;;20.15;;